Time;durP1;ratioP1;P1;durP2;ratioP2;P2;SDS_P1;SDS_P2;PMS_P1;PMS_P2;Temp;Humidity;BMP_temperature;BMP_pressure;BME280_temperature;BME280_humidity;BME280_pressure;Samples;Min_cycle;Max_cycle;Signal;HPM_P1;HPM_P2
2022/08/26 00:00:58;;;;;;;18.67;7.43;;;;;;;;;;5111093;28;20095;-72
2022/08/26 00:03:25;;;;;;;15.45;7.05;;;;;;;;;;5111168;28;20411;-74
2022/08/26 00:05:51;;;;;;;13.75;6.78;;;;;;;;;;5110886;28;20016;-73
2022/08/26 00:08:18;;;;;;;13.50;7.30;;;;;;;;;;5111121;28;20024;-73
2022/08/26 00:12:21;;;;;;;18.73;7.60;;;;;;;;;;5111339;27;20428;-72
2022/08/26 00:14:47;;;;;;;32.05;8.02;;;;;;;;;;5111529;28;20024;-72
2022/08/26 00:17:13;;;;;;;16.83;7.13;;;;;;;;;;5109968;28;20464;-72
2022/08/26 00:19:40;;;;;;;14.70;7.30;;;;;;;;;;5109615;28;20027;-72
2022/08/26 00:22:06;;;;;;;21.00;8.20;;;;;;;;;;5111092;28;20023;-72
2022/08/26 00:24:32;;;;;;;15.23;7.07;;;;;;;;;;5111204;28;20093;-72
2022/08/26 00:26:58;;;;;;;16.35;7.60;;;;;;;;;;5110731;28;20103;-71
2022/08/26 00:29:24;;;;;;;12.82;8.40;;;;;;;;;;5109817;28;20028;-72
2022/08/26 00:32:16;;;;;;;20.10;7.85;;;;;;;;;;5111842;27;20396;-72
2022/08/26 00:34:42;;;;;;;16.05;8.43;;;;;;;;;;5111663;28;20089;-72
2022/08/26 00:37:09;;;;;;;15.82;7.45;;;;;;;;;;5111365;28;20063;-72
2022/08/26 00:39:35;;;;;;;11.65;7.32;;;;;;;;;;5110894;28;20031;-72
2022/08/26 00:42:01;;;;;;;15.88;7.85;;;;;;;;;;5111181;28;20369;-72
2022/08/26 00:44:27;;;;;;;17.20;7.05;;;;;;;;;;5111127;28;20433;-72
2022/08/26 00:47:35;;;;;;;18.50;7.82;;;;;;;;;;5111288;27;20392;-72
2022/08/26 00:50:04;;;;;;;11.30;7.00;;;;;;;;;;5111505;28;20035;-72
2022/08/26 00:52:30;;;;;;;13.80;8.00;;;;;;;;;;5111405;28;20244;-72
2022/08/26 00:55:04;;;;;;;13.23;7.65;;;;;;;;;;5111038;28;20363;-72
2022/08/26 00:57:31;;;;;;;13.35;7.80;;;;;;;;;;5111221;28;20483;-72
2022/08/26 01:01:35;;;;;;;13.68;7.15;;;;;;;;;;5111032;27;20423;-73
2022/08/26 01:07:15;;;;;;;19.95;7.55;;;;;;;;;;5111450;27;20433;-72
2022/08/26 01:09:41;;;;;;;16.70;7.55;;;;;;;;;;5111774;28;20051;-72
2022/08/26 01:12:07;;;;;;;14.30;7.18;;;;;;;;;;5127122;28;20024;-73
2022/08/26 01:16:15;;;;;;;19.10;9.40;;;;;;;;;;5111072;27;20392;-72
2022/08/26 01:18:42;;;;;;;14.25;6.70;;;;;;;;;;5111455;28;20024;-72
2022/08/26 01:21:28;;;;;;;14.77;7.45;;;;;;;;;;5127054;28;20486;-72
2022/08/26 01:23:55;;;;;;;13.68;7.05;;;;;;;;;;5111251;28;20032;-72
2022/08/26 01:26:22;;;;;;;14.25;7.03;;;;;;;;;;5111434;28;20022;-71
2022/08/26 01:28:49;;;;;;;12.88;7.53;;;;;;;;;;5110793;28;20024;-71
2022/08/26 01:31:32;;;;;;;16.10;7.60;;;;;;;;;;5111460;27;20119;-72
2022/08/26 01:33:59;;;;;;;13.30;7.07;;;;;;;;;;5111306;28;20028;-72
2022/08/26 01:36:25;;;;;;;14.27;7.50;;;;;;;;;;5110873;28;20027;-72
2022/08/26 01:38:52;;;;;;;14.00;9.05;;;;;;;;;;5111205;28;20032;-72
2022/08/26 01:41:18;;;;;;;19.13;8.45;;;;;;;;;;5111234;28;20024;-72
2022/08/26 01:45:41;;;;;;;12.15;7.50;;;;;;;;;;5152744;27;20575;-72
2022/08/26 01:49:59;;;;;;;12.80;7.57;;;;;;;;;;5111626;27;20426;-71
2022/08/26 01:52:27;;;;;;;13.90;7.18;;;;;;;;;;5111408;28;20030;-72
2022/08/26 01:54:54;;;;;;;11.43;7.63;;;;;;;;;;5111261;28;20023;-72
2022/08/26 02:00:33;;;;;;;16.10;9.23;;;;;;;;;;5111745;27;21083;-73
2022/08/26 02:08:10;;;;;;;16.23;9.90;;;;;;;;;;5112262;27;20765;-73
2022/08/26 02:10:36;;;;;;;18.23;9.75;;;;;;;;;;5111041;28;20035;-72
2022/08/26 02:13:03;;;;;;;14.32;9.43;;;;;;;;;;5111310;28;20047;-72
2022/08/26 02:15:29;;;;;;;18.77;8.93;;;;;;;;;;5111303;28;20085;-72
2022/08/26 02:19:38;;;;;;;18.90;9.07;;;;;;;;;;5111038;27;20422;-72
2022/08/26 02:22:06;;;;;;;17.50;9.57;;;;;;;;;;5111484;28;20136;-72
2022/08/26 02:24:46;;;;;;;14.88;9.68;;;;;;;;;;5111255;28;20077;-72
2022/08/26 02:27:13;;;;;;;19.88;8.88;;;;;;;;;;5111310;28;20029;-72
2022/08/26 02:30:33;;;;;;;19.90;10.35;;;;;;;;;;5111463;27;20385;-72
2022/08/26 02:33:15;;;;;;;15.85;10.35;;;;;;;;;;5111303;27;20388;-72
2022/08/26 02:36:24;;;;;;;16.42;9.27;;;;;;;;;;5112182;27;20904;-72
2022/08/26 02:38:50;;;;;;;16.83;9.68;;;;;;;;;;5111060;28;20034;-72
2022/08/26 02:43:53;;;;;;;19.77;10.27;;;;;;;;;;5112191;27;20981;-72
2022/08/26 02:46:19;;;;;;;15.43;9.48;;;;;;;;;;5110919;28;20103;-72
2022/08/26 02:48:45;;;;;;;18.02;10.00;;;;;;;;;;5111450;28;20102;-72
2022/08/26 02:53:48;;;;;;;18.98;10.75;;;;;;;;;;5111440;27;20418;-72
2022/08/26 02:56:14;;;;;;;13.73;9.48;;;;;;;;;;5111632;28;20041;-72
2022/08/26 02:58:41;;;;;;;16.25;10.68;;;;;;;;;;5111313;28;20093;-72
2022/08/26 03:01:07;;;;;;;16.92;10.55;;;;;;;;;;5110965;28;20020;-72
2022/08/26 03:05:29;;;;;;;19.33;11.05;;;;;;;;;;5111849;27;20388;-73
2022/08/26 03:09:40;;;;;;;14.35;9.68;;;;;;;;;;5111742;27;20442;-72
2022/08/26 03:12:06;;;;;;;15.30;9.75;;;;;;;;;;5111364;28;20535;-73
2022/08/26 03:14:32;;;;;;;19.55;10.57;;;;;;;;;;5110887;28;20095;-72
2022/08/26 03:22:37;;;;;;;17.17;9.98;;;;;;;;;;5111119;27;20792;-72
2022/08/26 03:25:04;;;;;;;20.00;10.40;;;;;;;;;;5111508;28;20028;-72
2022/08/26 03:27:56;;;;;;;15.57;10.02;;;;;;;;;;5111281;27;21024;-71
2022/08/26 03:30:41;;;;;;;22.98;11.15;;;;;;;;;;5111468;28;20110;-72
2022/08/26 03:33:21;;;;;;;16.70;10.32;;;;;;;;;;5111819;27;20397;-72
2022/08/26 03:35:47;;;;;;;18.33;11.07;;;;;;;;;;5111256;28;20034;-72
2022/08/26 03:38:14;;;;;;;16.80;10.60;;;;;;;;;;5111303;28;20095;-72
2022/08/26 03:40:41;;;;;;;19.40;10.57;;;;;;;;;;5111212;28;20096;-72
2022/08/26 03:43:56;;;;;;;19.02;10.45;;;;;;;;;;5111060;27;20422;-72
2022/08/26 03:46:59;;;;;;;15.07;11.65;;;;;;;;;;5112129;27;20401;-72
2022/08/26 03:49:58;;;;;;;16.27;9.60;;;;;;;;;;5111337;27;20718;-72
2022/08/26 03:52:24;;;;;;;24.05;11.23;;;;;;;;;;5111385;28;20108;-72
2022/08/26 03:54:50;;;;;;;20.10;11.32;;;;;;;;;;5111266;28;20028;-73
2022/08/26 03:57:16;;;;;;;18.50;11.43;;;;;;;;;;5110994;28;20022;-73
2022/08/26 03:59:51;;;;;;;22.15;13.60;;;;;;;;;;5112010;27;21064;-72
2022/08/26 04:04:00;;;;;;;20.42;11.80;;;;;;;;;;5111336;27;20400;-72
2022/08/26 04:07:27;;;;;;;16.70;12.02;;;;;;;;;;5111545;27;20469;-72
2022/08/26 04:09:54;;;;;;;18.67;11.10;;;;;;;;;;5111404;28;20106;-73
2022/08/26 04:12:21;;;;;;;19.80;11.95;;;;;;;;;;5110898;28;20074;-73
2022/08/26 04:14:47;;;;;;;15.65;11.73;;;;;;;;;;5111559;28;20069;-74
2022/08/26 04:20:17;;;;;;;20.05;11.93;;;;;;;;;;5112197;27;20392;-72
2022/08/26 04:24:32;;;;;;;18.88;11.57;;;;;;;;;;5070938;28;20453;-72
2022/08/26 04:27:55;;;;;;;20.35;13.32;;;;;;;;;;5111773;27;20392;-72
2022/08/26 04:30:48;;;;;;;20.90;12.75;;;;;;;;;;5111852;27;20385;-72
2022/08/26 04:33:15;;;;;;;19.58;11.13;;;;;;;;;;5110902;28;20024;-74
2022/08/26 04:36:02;;;;;;;26.33;12.38;;;;;;;;;;5112136;27;20393;-73
2022/08/26 04:38:29;;;;;;;22.38;12.35;;;;;;;;;;5110971;28;20031;-73
2022/08/26 04:40:55;;;;;;;18.60;11.38;;;;;;;;;;5111294;28;20449;-73
2022/08/26 04:43:21;;;;;;;18.27;12.32;;;;;;;;;;5111316;28;20015;-73
2022/08/26 04:45:47;;;;;;;21.45;12.80;;;;;;;;;;5110748;28;20058;-73
2022/08/26 04:48:14;;;;;;;17.45;11.38;;;;;;;;;;5111547;28;20028;-73
2022/08/26 04:50:40;;;;;;;21.17;11.82;;;;;;;;;;5111710;28;20012;-72
2022/08/26 04:53:06;;;;;;;22.63;13.93;;;;;;;;;;5110676;28;20020;-72
2022/08/26 04:55:32;;;;;;;21.30;13.57;;;;;;;;;;5111134;28;20036;-73
2022/08/26 04:59:14;;;;;;;25.63;13.55;;;;;;;;;;5173551;27;20102;-73
2022/08/26 05:01:44;;;;;;;22.17;13.73;;;;;;;;;;5152134;27;20027;-72
2022/08/26 05:04:10;;;;;;;21.15;13.38;;;;;;;;;;5152836;27;20060;-74
2022/08/26 05:06:37;;;;;;;27.65;15.10;;;;;;;;;;5152530;27;20030;-73
2022/08/26 05:09:03;;;;;;;23.05;12.77;;;;;;;;;;5152425;27;20019;-71
2022/08/26 05:11:29;;;;;;;22.50;14.68;;;;;;;;;;5152425;27;20417;-71
2022/08/26 05:13:55;;;;;;;22.77;13.93;;;;;;;;;;5151915;27;20379;-73
2022/08/26 05:17:28;;;;;;;25.25;14.20;;;;;;;;;;5112274;27;20423;-72
2022/08/26 05:19:54;;;;;;;21.17;13.32;;;;;;;;;;5111280;28;20472;-72
2022/08/26 05:24:04;;;;;;;20.92;14.35;;;;;;;;;;5112052;27;20423;-72
2022/08/26 05:26:31;;;;;;;22.83;15.52;;;;;;;;;;5108774;28;20039;-72
2022/08/26 05:28:57;;;;;;;22.88;14.38;;;;;;;;;;5091121;28;20032;-72
2022/08/26 05:31:25;;;;;;;26.70;14.02;;;;;;;;;;5090789;28;20423;-73
2022/08/26 05:33:52;;;;;;;21.85;12.68;;;;;;;;;;5090776;28;20059;-78
2022/08/26 05:36:20;;;;;;;19.05;12.93;;;;;;;;;;5099252;28;20020;-74
2022/08/26 05:41:43;;;;;;;23.45;13.60;;;;;;;;;;5090958;27;20390;-74
2022/08/26 05:44:11;;;;;;;21.35;13.25;;;;;;;;;;5090747;28;20024;-73
2022/08/26 05:46:38;;;;;;;20.15;12.50;;;;;;;;;;5090669;28;20476;-74
2022/08/26 05:49:06;;;;;;;26.15;14.05;;;;;;;;;;5088834;28;20016;-74
2022/08/26 05:52:07;;;;;;;25.60;14.77;;;;;;;;;;5104316;27;20128;-75
2022/08/26 05:54:33;;;;;;;23.35;13.05;;;;;;;;;;5090620;28;20024;-71
2022/08/26 05:57:30;;;;;;;20.08;13.55;;;;;;;;;;5110802;27;20496;-75
2022/08/26 05:59:57;;;;;;;21.25;13.57;;;;;;;;;;5097075;28;20488;-73
2022/08/26 06:02:23;;;;;;;20.00;12.73;;;;;;;;;;5105953;28;20082;-73
2022/08/26 06:04:49;;;;;;;22.73;14.00;;;;;;;;;;5110827;28;20463;-74
2022/08/26 06:09:40;;;;;;;20.20;12.77;;;;;;;;;;5104832;27;20469;-73
2022/08/26 06:12:06;;;;;;;22.50;12.65;;;;;;;;;;5090200;28;20400;-75
2022/08/26 06:16:29;;;;;;;23.00;13.32;;;;;;;;;;5111273;27;20450;-74
2022/08/26 06:19:06;;;;;;;22.60;13.77;;;;;;;;;;5110736;28;20031;-75
2022/08/26 06:21:34;;;;;;;27.92;13.20;;;;;;;;;;5106955;28;20027;-72
2022/08/26 06:28:54;;;;;;;19.30;13.45;;;;;;;;;;5103618;27;20435;-76
2022/08/26 06:31:21;;;;;;;23.70;15.10;;;;;;;;;;5109891;28;20036;-74
2022/08/26 06:33:47;;;;;;;22.38;13.23;;;;;;;;;;5109783;28;20024;-76
2022/08/26 06:36:18;;;;;;;19.13;14.07;;;;;;;;;;5110074;28;20027;-75
2022/08/26 06:39:40;;;;;;;24.92;14.95;;;;;;;;;;5151149;27;20311;-73
2022/08/26 06:42:06;;;;;;;20.40;13.27;;;;;;;;;;5130872;28;20031;-79
2022/08/26 06:44:32;;;;;;;24.25;13.60;;;;;;;;;;5139993;27;20027;-75
2022/08/26 06:46:58;;;;;;;22.02;13.40;;;;;;;;;;5146463;27;20035;-74
2022/08/26 06:49:25;;;;;;;18.95;12.68;;;;;;;;;;5103554;28;20051;-71
2022/08/26 06:51:51;;;;;;;22.42;13.98;;;;;;;;;;5127089;28;20027;-71
2022/08/26 06:54:17;;;;;;;18.25;12.75;;;;;;;;;;5092625;28;20049;-73
2022/08/26 06:56:43;;;;;;;20.42;13.55;;;;;;;;;;5110908;28;20497;-70
2022/08/26 07:00:42;;;;;;;25.98;12.68;;;;;;;;;;5110872;27;20896;-69
2022/08/26 07:05:09;;;;;;;16.88;12.38;;;;;;;;;;5109387;27;20552;-70
2022/08/26 07:07:35;;;;;;;19.77;10.57;;;;;;;;;;5097386;28;20544;-70
2022/08/26 07:10:01;;;;;;;18.92;12.05;;;;;;;;;;5082290;28;20027;-73
2022/08/26 07:12:27;;;;;;;18.15;12.38;;;;;;;;;;5079358;28;20108;-71
2022/08/26 07:14:53;;;;;;;18.83;11.15;;;;;;;;;;5070046;28;20079;-70
2022/08/26 07:17:19;;;;;;;16.88;11.43;;;;;;;;;;5088969;28;20488;-71
2022/08/26 07:19:47;;;;;;;18.13;12.20;;;;;;;;;;5090537;28;20504;-72
2022/08/26 07:22:13;;;;;;;16.63;11.73;;;;;;;;;;5090095;28;20376;-73
2022/08/26 07:24:40;;;;;;;23.52;11.73;;;;;;;;;;5090380;28;20074;-76
2022/08/26 07:27:08;;;;;;;16.65;11.32;;;;;;;;;;5090153;28;20073;-78
2022/08/26 07:29:34;;;;;;;15.88;10.65;;;;;;;;;;5090508;28;20040;-74
2022/08/26 07:36:14;;;;;;;17.45;9.30;;;;;;;;;;5110756;27;20397;-73
2022/08/26 07:40:15;;;;;;;14.93;8.52;;;;;;;;;;5111098;27;20453;-74
2022/08/26 07:42:41;;;;;;;18.45;8.85;;;;;;;;;;5110690;28;20494;-76
2022/08/26 07:45:07;;;;;;;20.48;9.85;;;;;;;;;;5104384;28;20089;-75
2022/08/26 07:47:34;;;;;;;19.02;8.75;;;;;;;;;;5094698;28;20032;-74
2022/08/26 07:50:00;;;;;;;20.27;9.50;;;;;;;;;;5090208;28;20025;-77
2022/08/26 07:54:56;;;;;;;30.20;10.48;;;;;;;;;;5111216;27;20417;-73
2022/08/26 07:57:23;;;;;;;35.33;10.45;;;;;;;;;;5100693;28;20425;-74
2022/08/26 07:59:49;;;;;;;57.65;11.07;;;;;;;;;;5107556;28;20046;-72
2022/08/26 08:02:15;;;;;;;26.50;11.50;;;;;;;;;;5106732;28;20046;-73
2022/08/26 08:04:43;;;;;;;41.38;12.55;;;;;;;;;;5100045;28;20111;-74
2022/08/26 08:07:09;;;;;;;44.90;12.18;;;;;;;;;;5110065;28;20688;-72
2022/08/26 08:09:35;;;;;;;17.20;8.80;;;;;;;;;;5109808;28;20092;-72
2022/08/26 08:12:01;;;;;;;27.38;8.15;;;;;;;;;;5105273;28;20050;-72
2022/08/26 08:14:27;;;;;;;14.40;8.13;;;;;;;;;;5109726;28;20031;-73
2022/08/26 08:17:22;;;;;;;22.05;10.00;;;;;;;;;;5110393;27;20426;-76
2022/08/26 08:19:48;;;;;;;18.23;7.30;;;;;;;;;;5109745;28;20028;-73
2022/08/26 08:22:16;;;;;;;13.68;6.55;;;;;;;;;;5097238;28;20448;-74
2022/08/26 08:24:42;;;;;;;17.60;6.07;;;;;;;;;;5110572;28;20106;-74
2022/08/26 08:27:09;;;;;;;13.70;6.60;;;;;;;;;;5111088;28;20380;-74
2022/08/26 08:29:36;;;;;;;18.02;6.45;;;;;;;;;;5097104;28;20035;-73
2022/08/26 08:35:27;;;;;;;15.32;7.30;;;;;;;;;;5109403;27;20392;-73
2022/08/26 08:38:42;;;;;;;22.27;8.85;;;;;;;;;;5171976;27;20143;-75
2022/08/26 08:41:23;;;;;;;21.85;7.47;;;;;;;;;;5151856;27;20031;-72
2022/08/26 08:43:50;;;;;;;15.18;6.40;;;;;;;;;;5152520;27;20374;-72
2022/08/26 08:46:18;;;;;;;13.75;6.55;;;;;;;;;;5133153;27;20034;-74
2022/08/26 08:48:49;;;;;;;12.00;5.95;;;;;;;;;;5152285;27;20367;-74
2022/08/26 08:51:18;;;;;;;12.68;6.72;;;;;;;;;;5151441;27;20029;-74
2022/08/26 08:53:46;;;;;;;14.10;6.65;;;;;;;;;;5151201;27;20026;-74
2022/08/26 08:56:30;;;;;;;17.65;7.45;;;;;;;;;;5134822;27;20443;-72
2022/08/26 08:58:57;;;;;;;13.20;5.80;;;;;;;;;;5110295;28;20047;-72
2022/08/26 09:01:23;;;;;;;18.50;6.70;;;;;;;;;;5128810;28;20475;-73
2022/08/26 09:03:55;;;;;;;17.90;5.93;;;;;;;;;;5128948;28;20032;-73
2022/08/26 09:06:21;;;;;;;32.30;7.30;;;;;;;;;;5128569;28;20410;-72
2022/08/26 09:08:50;;;;;;;40.33;8.70;;;;;;;;;;5128974;28;20155;-74
2022/08/26 09:11:17;;;;;;;24.38;6.95;;;;;;;;;;5129051;28;20039;-74
2022/08/26 09:13:53;;;;;;;16.70;7.00;;;;;;;;;;5129899;28;20026;-73
2022/08/26 09:16:36;;;;;;;23.33;7.68;;;;;;;;;;5128725;28;20020;-74
2022/08/26 09:19:13;;;;;;;14.38;5.00;;;;;;;;;;5128940;28;20026;-73
2022/08/26 09:21:40;;;;;;;13.88;5.25;;;;;;;;;;5128622;28;20024;-72
2022/08/26 09:24:06;;;;;;;54.88;11.07;;;;;;;;;;5128920;28;20038;-73
2022/08/26 09:26:38;;;;;;;35.13;8.10;;;;;;;;;;5128838;28;20030;-72
2022/08/26 09:29:09;;;;;;;20.67;4.97;;;;;;;;;;5129249;28;20028;-72
2022/08/26 09:31:37;;;;;;;17.15;4.47;;;;;;;;;;5133049;27;20542;-75
2022/08/26 09:34:12;;;;;;;24.20;7.18;;;;;;;;;;5132494;27;20028;-72
2022/08/26 09:36:40;;;;;;;14.50;4.45;;;;;;;;;;5130449;28;20035;-74
2022/08/26 09:39:26;;;;;;;14.40;3.78;;;;;;;;;;5130527;28;20034;-74
2022/08/26 09:42:04;;;;;;;14.02;4.75;;;;;;;;;;5130246;28;20023;-74
2022/08/26 09:44:30;;;;;;;16.90;5.00;;;;;;;;;;5130512;28;20031;-74
2022/08/26 09:46:58;;;;;;;36.60;7.30;;;;;;;;;;5136719;27;20103;-74
2022/08/26 09:49:35;;;;;;;12.35;5.30;;;;;;;;;;5119117;27;20084;-73
2022/08/26 09:52:06;;;;;;;11.60;4.55;;;;;;;;;;5116985;27;20164;-73
2022/08/26 09:54:33;;;;;;;25.65;6.93;;;;;;;;;;5121488;27;20028;-75
2022/08/26 09:57:13;;;;;;;28.88;5.55;;;;;;;;;;5125390;27;20031;-74
2022/08/26 09:59:39;;;;;;;10.85;4.35;;;;;;;;;;5118595;27;20027;-74
2022/08/26 10:02:16;;;;;;;11.43;4.40;;;;;;;;;;5111851;27;20019;-74
2022/08/26 10:04:50;;;;;;;9.45;3.33;;;;;;;;;;5135963;27;20148;-74
2022/08/26 10:07:33;;;;;;;20.13;4.03;;;;;;;;;;5117653;27;20027;-73
2022/08/26 10:10:03;;;;;;;12.88;3.70;;;;;;;;;;5117990;27;20353;-74
2022/08/26 10:12:31;;;;;;;17.83;4.28;;;;;;;;;;5124181;27;20050;-72
2022/08/26 10:15:01;;;;;;;9.45;2.95;;;;;;;;;;5127656;27;20019;-72
2022/08/26 10:17:42;;;;;;;10.80;3.60;;;;;;;;;;5130689;27;20036;-73
2022/08/26 10:20:11;;;;;;;11.70;3.43;;;;;;;;;;5116186;27;20499;-74
2022/08/26 10:22:44;;;;;;;9.77;2.85;;;;;;;;;;5115660;28;20031;-74
2022/08/26 10:25:16;;;;;;;10.38;3.83;;;;;;;;;;5115296;28;20032;-76
2022/08/26 10:27:42;;;;;;;;;;;;;;;;;;5130395;27;20019;-74
2022/08/26 10:30:18;;;;;;;13.00;3.45;;;;;;;;;;5131756;27;19907;-75
2022/08/26 10:32:47;;;;;;;11.73;3.42;;;;;;;;;;5135872;27;20483;-75
2022/08/26 10:35:14;;;;;;;10.75;3.65;;;;;;;;;;5134150;27;20038;-75
2022/08/26 10:37:42;;;;;;;10.50;3.03;;;;;;;;;;5114947;28;20154;-74
2022/08/26 10:40:11;;;;;;;8.38;3.92;;;;;;;;;;5115678;28;20026;-74
2022/08/26 10:42:37;;;;;;;11.77;3.05;;;;;;;;;;5115648;28;20031;-73
2022/08/26 10:45:16;;;;;;;14.88;2.63;;;;;;;;;;5114948;28;20027;-74
2022/08/26 10:47:45;;;;;;;8.00;3.05;;;;;;;;;;5116101;27;20383;-76
2022/08/26 10:50:11;;;;;;;14.90;3.28;;;;;;;;;;5112990;27;20405;-77
2022/08/26 10:52:50;;;;;;;9.48;3.10;;;;;;;;;;5135660;27;20129;-75
2022/08/26 10:55:23;;;;;;;12.52;2.70;;;;;;;;;;5129787;27;20429;-74
2022/08/26 10:58:00;;;;;;;11.90;3.00;;;;;;;;;;5122023;27;20475;-73
2022/08/26 11:03:30;;;;;;;12.48;2.53;;;;;;;;;;5117158;28;20110;-75
2022/08/26 11:06:15;;;;;;;9.52;3.10;;;;;;;;;;5115065;28;20376;-73
2022/08/26 11:08:48;;;;;;;13.48;3.70;;;;;;;;;;5115129;28;20111;-73
2022/08/26 11:11:33;;;;;;;14.32;3.35;;;;;;;;;;5115085;28;20019;-74
2022/08/26 11:14:01;;;;;;;9.82;2.47;;;;;;;;;;5114689;28;20038;-75
2022/08/26 11:16:35;;;;;;;11.07;2.33;;;;;;;;;;5122919;27;20027;-72
2022/08/26 11:19:01;;;;;;;12.52;3.70;;;;;;;;;;5096404;28;20027;-73
2022/08/26 11:21:48;;;;;;;10.77;3.35;;;;;;;;;;5114470;28;20076;-74
2022/08/26 11:24:33;;;;;;;13.68;3.20;;;;;;;;;;5114785;28;20081;-74
2022/08/26 11:26:59;;;;;;;10.75;2.53;;;;;;;;;;5114158;28;20032;-74
2022/08/26 11:29:43;;;;;;;5.90;2.53;;;;;;;;;;5114695;28;20023;-73
2022/08/26 11:32:23;;;;;;;14.90;3.05;;;;;;;;;;5114880;27;20088;-75
2022/08/26 11:34:52;;;;;;;6.80;3.28;;;;;;;;;;5114491;28;20023;-72
2022/08/26 11:37:19;;;;;;;7.40;2.50;;;;;;;;;;5130005;27;20043;-72
2022/08/26 11:39:49;;;;;;;18.27;3.25;;;;;;;;;;5133601;27;20383;-72
2022/08/26 11:42:19;;;;;;;9.30;3.17;;;;;;;;;;5133573;27;20532;-72
2022/08/26 11:44:45;;;;;;;7.55;2.75;;;;;;;;;;5134534;27;20015;-72
2022/08/26 11:47:16;;;;;;;13.10;3.20;;;;;;;;;;5134081;27;20023;-73
2022/08/26 11:49:42;;;;;;;10.65;2.13;;;;;;;;;;5134376;27;20025;-73
2022/08/26 11:52:10;;;;;;;12.40;3.35;;;;;;;;;;5134320;27;20032;-72
2022/08/26 11:54:36;;;;;;;10.60;3.08;;;;;;;;;;5134098;27;20022;-72
2022/08/26 11:57:04;;;;;;;10.10;2.67;;;;;;;;;;5134613;27;20023;-72
2022/08/26 11:59:32;;;;;;;9.60;3.45;;;;;;;;;;5134448;27;20106;-73
2022/08/26 12:01:59;;;;;;;8.95;3.20;;;;;;;;;;5134191;27;20065;-73
2022/08/26 12:04:36;;;;;;;9.60;3.33;;;;;;;;;;5135001;27;20094;-73
2022/08/26 12:07:03;;;;;;;21.35;3.80;;;;;;;;;;5135109;27;20015;-72
2022/08/26 12:09:34;;;;;;;36.45;7.78;;;;;;;;;;5134534;27;20030;-72
2022/08/26 12:12:11;;;;;;;18.95;3.78;;;;;;;;;;5134430;27;20468;-73
2022/08/26 12:14:37;;;;;;;11.63;3.08;;;;;;;;;;5134821;27;20025;-73
2022/08/26 12:17:15;;;;;;;10.68;3.13;;;;;;;;;;5134186;27;20035;-73
2022/08/26 12:19:41;;;;;;;22.27;4.22;;;;;;;;;;5134573;27;20475;-73
2022/08/26 12:22:20;;;;;;;24.10;4.43;;;;;;;;;;5134570;27;20038;-73
2022/08/26 12:24:48;;;;;;;16.92;3.83;;;;;;;;;;5134235;27;20016;-73
2022/08/26 12:27:14;;;;;;;8.77;3.03;;;;;;;;;;5134474;27;20023;-73
2022/08/26 12:29:40;;;;;;;14.27;4.03;;;;;;;;;;5134183;27;20479;-73
2022/08/26 12:32:12;;;;;;;14.50;3.92;;;;;;;;;;5134553;27;20382;-73
2022/08/26 12:34:40;;;;;;;9.38;2.65;;;;;;;;;;5134481;27;20164;-73
2022/08/26 12:37:06;;;;;;;12.13;2.90;;;;;;;;;;5115327;28;20039;-73
2022/08/26 12:39:36;;;;;;;10.45;3.03;;;;;;;;;;5134341;28;20339;-73
2022/08/26 12:42:14;;;;;;;7.05;2.78;;;;;;;;;;5134365;28;20020;-73
2022/08/26 12:44:48;;;;;;;10.00;3.50;;;;;;;;;;5115524;28;20030;-73
2022/08/26 12:47:21;;;;;;;10.88;3.03;;;;;;;;;;5134430;28;20072;-73
2022/08/26 12:49:48;;;;;;;9.88;2.75;;;;;;;;;;5134171;28;20023;-73
2022/08/26 12:52:28;;;;;;;7.75;2.58;;;;;;;;;;5133826;28;20471;-73
2022/08/26 12:54:59;;;;;;;17.17;4.38;;;;;;;;;;5134496;28;20049;-73
2022/08/26 12:57:27;;;;;;;8.17;3.10;;;;;;;;;;5134149;28;20057;-74
2022/08/26 12:59:54;;;;;;;19.63;4.10;;;;;;;;;;5133848;28;20011;-74
2022/08/26 13:02:36;;;;;;;19.15;3.90;;;;;;;;;;5134240;28;20027;-74
2022/08/26 13:05:02;;;;;;;10.30;3.03;;;;;;;;;;5133748;28;20157;-74
2022/08/26 13:07:28;;;;;;;6.65;2.92;;;;;;;;;;5134168;28;20023;-74
2022/08/26 13:09:56;;;;;;;9.20;2.65;;;;;;;;;;5134142;28;20023;-74
2022/08/26 13:12:23;;;;;;;6.38;2.13;;;;;;;;;;5133646;28;20065;-74
2022/08/26 13:14:49;;;;;;;6.47;2.50;;;;;;;;;;5134001;28;20027;-74
2022/08/26 13:17:16;;;;;;;8.45;2.38;;;;;;;;;;5133837;28;20031;-74
2022/08/26 13:19:42;;;;;;;6.72;2.20;;;;;;;;;;5133510;28;20030;-74
2022/08/26 13:22:11;;;;;;;5.00;2.20;;;;;;;;;;5133904;28;20027;-74
2022/08/26 13:24:41;;;;;;;9.82;3.17;;;;;;;;;;5136426;27;20102;-74
2022/08/26 13:27:09;;;;;;;9.73;2.75;;;;;;;;;;5137520;27;20109;-74
2022/08/26 13:29:35;;;;;;;6.28;2.13;;;;;;;;;;5137918;27;20019;-74
2022/08/26 13:32:03;;;;;;;8.65;2.00;;;;;;;;;;5119411;27;20019;-74
2022/08/26 13:34:30;;;;;;;9.10;2.05;;;;;;;;;;5137182;27;20030;-74
2022/08/26 13:36:57;;;;;;;4.45;2.20;;;;;;;;;;5137617;27;20122;-74
2022/08/26 13:39:24;;;;;;;9.00;2.90;;;;;;;;;;5137589;27;20024;-74
2022/08/26 13:41:50;;;;;;;30.88;4.72;;;;;;;;;;5136912;27;20137;-74
2022/08/26 13:44:17;;;;;;;13.77;3.65;;;;;;;;;;5137447;27;20031;-74
2022/08/26 13:46:43;;;;;;;7.80;2.40;;;;;;;;;;5137511;27;20055;-74
2022/08/26 13:49:09;;;;;;;12.10;2.72;;;;;;;;;;5137839;27;20123;-74
2022/08/26 13:51:36;;;;;;;13.25;3.60;;;;;;;;;;5137320;27;20019;-74
2022/08/26 13:54:03;;;;;;;6.82;2.58;;;;;;;;;;5136834;27;20023;-74
2022/08/26 13:56:30;;;;;;;8.25;2.65;;;;;;;;;;5137105;27;20011;-74
2022/08/26 13:58:58;;;;;;;10.10;3.17;;;;;;;;;;5137228;27;20524;-73
2022/08/26 14:01:24;;;;;;;9.52;2.63;;;;;;;;;;5136535;27;20023;-74
2022/08/26 14:03:50;;;;;;;7.03;2.70;;;;;;;;;;5137107;27;20079;-74
2022/08/26 14:06:17;;;;;;;16.02;3.13;;;;;;;;;;5137202;27;20027;-74
2022/08/26 14:08:43;;;;;;;8.60;3.33;;;;;;;;;;5136742;27;20076;-73
2022/08/26 14:11:09;;;;;;;7.40;2.50;;;;;;;;;;5137359;27;20103;-73
2022/08/26 14:13:36;;;;;;;12.30;3.70;;;;;;;;;;5136995;27;20063;-72
2022/08/26 14:16:04;;;;;;;8.90;2.45;;;;;;;;;;5136622;27;20479;-73
2022/08/26 14:18:34;;;;;;;7.20;2.35;;;;;;;;;;5136827;27;20125;-73
2022/08/26 14:21:00;;;;;;;19.77;4.15;;;;;;;;;;5136801;27;20019;-73
2022/08/26 14:23:27;;;;;;;15.43;3.58;;;;;;;;;;5136508;27;20072;-73
2022/08/26 14:25:53;;;;;;;15.07;3.35;;;;;;;;;;5136736;27;20019;-73
2022/08/26 14:28:19;;;;;;;9.75;2.83;;;;;;;;;;5136658;27;20152;-73
2022/08/26 14:30:49;;;;;;;7.93;2.65;;;;;;;;;;5136272;27;20080;-73
2022/08/26 14:33:15;;;;;;;10.63;2.45;;;;;;;;;;5136506;27;20023;-73
2022/08/26 14:35:41;;;;;;;9.43;2.95;;;;;;;;;;5136327;27;20019;-73
2022/08/26 14:38:07;;;;;;;6.18;2.67;;;;;;;;;;5135882;27;20075;-73
2022/08/26 14:40:34;;;;;;;9.70;2.67;;;;;;;;;;5136357;27;20023;-73
2022/08/26 14:43:01;;;;;;;16.60;3.55;;;;;;;;;;5136321;27;20475;-73
2022/08/26 14:45:27;;;;;;;8.45;2.80;;;;;;;;;;5136359;27;20023;-75
2022/08/26 14:47:55;;;;;;;6.18;2.70;;;;;;;;;;5136424;27;20030;-74
2022/08/26 14:50:22;;;;;;;33.67;5.20;;;;;;;;;;5136141;27;20023;-74
2022/08/26 14:55:35;;;;;;;25.55;5.55;;;;;;;;;;5136572;27;20027;-73
2022/08/26 14:58:01;;;;;;;10.35;2.97;;;;;;;;;;5135584;27;20062;-73
2022/08/26 15:00:27;;;;;;;9.35;2.70;;;;;;;;;;5135913;27;20110;-73
2022/08/26 15:02:54;;;;;;;10.20;3.20;;;;;;;;;;5135986;27;20027;-73
2022/08/26 15:05:20;;;;;;;11.45;2.50;;;;;;;;;;5135552;27;20041;-73
2022/08/26 15:07:46;;;;;;;12.73;3.03;;;;;;;;;;5136128;27;20029;-72
2022/08/26 15:10:13;;;;;;;10.00;3.63;;;;;;;;;;5135797;27;20551;-73
2022/08/26 15:12:40;;;;;;;9.15;2.72;;;;;;;;;;5135418;27;20023;-73
2022/08/26 15:15:07;;;;;;;6.35;2.42;;;;;;;;;;5135867;27;20087;-73
2022/08/26 15:17:34;;;;;;;6.50;2.38;;;;;;;;;;5135691;27;20035;-73
2022/08/26 15:20:00;;;;;;;11.07;3.53;;;;;;;;;;5135281;27;20102;-72
2022/08/26 15:22:26;;;;;;;4.25;2.75;;;;;;;;;;5135699;27;20019;-73
2022/08/26 15:24:52;;;;;;;5.70;2.45;;;;;;;;;;5135615;27;20030;-72
2022/08/26 15:27:18;;;;;;;5.88;2.15;;;;;;;;;;5135302;27;20418;-73
2022/08/26 15:29:44;;;;;;;6.80;2.80;;;;;;;;;;5135417;27;20019;-73
2022/08/26 15:32:11;;;;;;;9.23;2.45;;;;;;;;;;5135498;27;20023;-73
2022/08/26 15:34:37;;;;;;;12.90;4.03;;;;;;;;;;5134936;27;20015;-73
2022/08/26 15:37:04;;;;;;;7.93;2.25;;;;;;;;;;5135539;27;20070;-73
2022/08/26 15:39:31;;;;;;;9.00;2.78;;;;;;;;;;5135228;27;20019;-74
2022/08/26 15:41:58;;;;;;;12.45;3.45;;;;;;;;;;5135475;27;20102;-73
2022/08/26 15:44:25;;;;;;;6.10;2.20;;;;;;;;;;5135237;27;20528;-73
2022/08/26 15:46:53;;;;;;;9.57;3.38;;;;;;;;;;5134157;27;20360;-73
2022/08/26 15:49:20;;;;;;;5.32;2.50;;;;;;;;;;5135177;27;20023;-73
2022/08/26 15:51:49;;;;;;;5.35;2.40;;;;;;;;;;5135114;27;20027;-73
2022/08/26 15:54:15;;;;;;;9.18;3.47;;;;;;;;;;5134771;27;20023;-73
2022/08/26 15:56:41;;;;;;;10.80;2.40;;;;;;;;;;5135212;27;20152;-73
2022/08/26 15:59:08;;;;;;;7.28;2.80;;;;;;;;;;5135489;27;20031;-73
2022/08/26 16:01:35;;;;;;;9.90;2.67;;;;;;;;;;5134776;27;20207;-73
2022/08/26 16:04:01;;;;;;;6.88;2.22;;;;;;;;;;5116636;27;20024;-73
2022/08/26 16:06:29;;;;;;;4.78;2.20;;;;;;;;;;5134850;27;20024;-73